createdAt,value
2023-02-06T00:01:23.667Z,19.05
2023-02-06T00:03:50.275Z,36.55
2023-02-06T00:06:17.040Z,32.97
2023-02-06T00:08:43.929Z,28.35
2023-02-06T00:11:14.623Z,29.45
2023-02-06T00:13:41.168Z,33.25
2023-02-06T00:16:17.149Z,41.10
2023-02-06T00:18:43.905Z,34.35
2023-02-06T00:21:10.436Z,37.47
2023-02-06T00:23:37.018Z,22.98
2023-02-06T00:26:04.276Z,46.95
2023-02-06T00:28:30.822Z,45.38
2023-02-06T00:30:57.552Z,36.25
2023-02-06T00:33:24.126Z,27.35
2023-02-06T00:35:50.669Z,29.30
2023-02-06T00:38:17.189Z,42.00
2023-02-06T00:40:44.321Z,34.60
2023-02-06T00:43:10.861Z,31.35
2023-02-06T00:45:37.428Z,31.00
2023-02-06T00:48:04.126Z,28.23
2023-02-06T00:50:30.826Z,25.27
2023-02-06T00:52:57.330Z,32.17
2023-02-06T00:55:23.835Z,26.42
2023-02-06T00:57:50.383Z,17.95
2023-02-06T01:00:17.018Z,23.02
2023-02-06T01:02:43.698Z,32.38
2023-02-06T01:05:10.296Z,24.60
2023-02-06T01:07:39.336Z,31.25
2023-02-06T01:10:07.633Z,26.38
2023-02-06T01:12:35.951Z,27.25
2023-02-06T01:15:05.681Z,24.00
2023-02-06T01:17:33.664Z,29.38
2023-02-06T01:20:00.545Z,25.52
2023-02-06T01:22:27.494Z,25.65
2023-02-06T01:24:54.119Z,21.60
2023-02-06T01:27:20.732Z,24.85
2023-02-06T01:29:47.269Z,20.73
2023-02-06T01:32:13.779Z,20.88
2023-02-06T01:34:40.326Z,23.60
2023-02-06T01:37:06.833Z,18.15
2023-02-06T01:39:33.538Z,28.02
2023-02-06T01:42:00.564Z,17.73
2023-02-06T01:44:27.391Z,30.17
2023-02-06T01:46:56.546Z,27.52
2023-02-06T01:49:37.799Z,25.33
2023-02-06T01:52:14.854Z,23.20
2023-02-06T01:54:43.186Z,27.83
2023-02-06T01:57:13.154Z,27.65
2023-02-06T01:59:46.364Z,28.98
2023-02-06T02:02:14.086Z,24.98
2023-02-06T02:04:41.127Z,25.50
2023-02-06T02:07:18.735Z,21.88
2023-02-06T02:09:45.243Z,29.30
2023-02-06T02:12:12.938Z,23.83
2023-02-06T02:14:43.080Z,22.42
2023-02-06T02:17:42.159Z,36.08
2023-02-06T02:20:41.271Z,22.20
2023-02-06T02:23:29.645Z,24.73
2023-02-06T02:26:21.955Z,17.77
2023-02-06T02:29:20.577Z,22.70
2023-02-06T02:32:21.313Z,18.30
2023-02-06T02:35:05.059Z,14.30
2023-02-06T02:38:03.114Z,28.98
2023-02-06T02:41:25.397Z,19.85
2023-02-06T02:44:10.880Z,23.15
2023-02-06T02:46:48.758Z,18.60
2023-02-06T02:49:22.511Z,20.65
2023-02-06T02:51:50.302Z,27.65
2023-02-06T02:54:17.961Z,18.02
2023-02-06T02:56:44.690Z,15.30
2023-02-06T02:59:25.190Z,14.82
2023-02-06T03:02:12.585Z,24.35
2023-02-06T03:04:58.514Z,19.35
2023-02-06T03:07:39.557Z,20.42
2023-02-06T03:10:23.543Z,18.58
2023-02-06T03:13:02.020Z,29.00
2023-02-06T03:15:48.353Z,31.02
2023-02-06T03:18:23.041Z,27.35
2023-02-06T03:20:50.926Z,28.30
2023-02-06T03:23:29.104Z,27.83
2023-02-06T03:26:00.364Z,24.08
2023-02-06T03:28:33.248Z,21.88
2023-02-06T03:31:02.933Z,21.85
2023-02-06T03:33:36.301Z,20.55
2023-02-06T03:36:05.095Z,22.23
2023-02-06T03:38:31.836Z,22.30
2023-02-06T03:41:01.318Z,21.67
2023-02-06T03:43:29.590Z,11.57
2023-02-06T03:46:01.689Z,20.45
2023-02-06T03:48:34.663Z,18.45
2023-02-06T03:51:07.097Z,26.25
2023-02-06T03:53:35.515Z,27.98
2023-02-06T03:56:08.724Z,23.20
2023-02-06T03:58:35.442Z,17.35
2023-02-06T04:01:04.739Z,25.88
2023-02-06T04:03:32.282Z,22.73
2023-02-06T04:05:59.374Z,23.42
2023-02-06T04:08:25.985Z,14.02
2023-02-06T04:10:52.495Z,17.48
2023-02-06T04:13:18.982Z,20.13
2023-02-06T04:15:45.516Z,23.55
2023-02-06T04:18:12.003Z,16.70
2023-02-06T04:20:40.972Z,19.17
2023-02-06T04:23:08.624Z,21.77
2023-02-06T04:25:35.796Z,16.05
2023-02-06T04:28:02.567Z,11.88
2023-02-06T04:30:29.099Z,14.25
2023-02-06T04:32:55.678Z,16.25
2023-02-06T04:35:22.278Z,13.07
2023-02-06T04:37:48.806Z,22.98
2023-02-06T04:40:15.378Z,19.95
2023-02-06T04:42:41.850Z,14.63
2023-02-06T04:45:09.332Z,13.30
2023-02-06T04:47:35.850Z,11.48
2023-02-06T04:50:03.546Z,9.18
2023-02-06T04:52:30.064Z,15.18
2023-02-06T04:54:56.559Z,14.70
2023-02-06T04:57:23.687Z,13.73
2023-02-06T04:59:50.232Z,15.25
2023-02-06T05:02:16.848Z,14.23
2023-02-06T05:04:43.370Z,10.43
2023-02-06T05:07:09.986Z,16.15
2023-02-06T05:09:36.535Z,12.05
2023-02-06T05:12:03.160Z,21.25
2023-02-06T05:14:29.683Z,12.82
2023-02-06T05:16:56.228Z,18.02
2023-02-06T05:19:22.754Z,21.25
2023-02-06T05:21:49.269Z,17.48
2023-02-06T05:24:15.771Z,16.48
2023-02-06T05:26:42.327Z,8.93
2023-02-06T05:29:08.830Z,15.50
2023-02-06T05:31:35.624Z,15.40
2023-02-06T05:34:02.228Z,20.55
2023-02-06T05:36:29.179Z,13.52
2023-02-06T05:38:55.713Z,22.55
2023-02-06T05:41:22.281Z,14.35
2023-02-06T05:43:48.808Z,27.45
2023-02-06T05:46:15.721Z,12.65
2023-02-06T05:48:42.332Z,16.15
2023-02-06T05:51:08.880Z,13.00
2023-02-06T05:53:35.701Z,17.80
2023-02-06T05:56:02.263Z,17.60
2023-02-06T05:58:29.083Z,19.63
2023-02-06T06:00:55.616Z,14.30
2023-02-06T06:03:22.229Z,19.33
2023-02-06T06:05:48.837Z,12.45
2023-02-06T06:08:15.806Z,21.33
2023-02-06T06:10:42.336Z,18.45
2023-02-06T06:13:08.866Z,19.92
2023-02-06T06:15:35.734Z,14.48
2023-02-06T06:18:02.505Z,19.23
2023-02-06T06:20:29.198Z,18.80
2023-02-06T06:22:55.702Z,11.98
2023-02-06T06:25:22.208Z,21.67
2023-02-06T06:27:48.864Z,21.70
2023-02-06T06:30:15.439Z,16.40
2023-02-06T06:32:41.934Z,18.48
2023-02-06T06:35:09.030Z,16.98
2023-02-06T06:37:35.787Z,21.17
2023-02-06T06:40:02.567Z,16.42
2023-02-06T06:42:29.242Z,16.02
2023-02-06T06:44:55.756Z,15.63
2023-02-06T06:47:22.270Z,22.50
2023-02-06T06:49:48.771Z,24.02
2023-02-06T06:52:24.534Z,23.00
2023-02-06T06:54:52.847Z,19.85
2023-02-06T06:57:20.320Z,15.15
2023-02-06T06:59:46.839Z,20.58
2023-02-06T07:02:14.034Z,23.90
2023-02-06T07:04:40.507Z,24.67
2023-02-06T07:07:07.135Z,25.75
2023-02-06T07:09:34.036Z,19.40
2023-02-06T07:12:00.609Z,30.30
2023-02-06T07:14:27.108Z,29.02
2023-02-06T07:16:53.624Z,28.25
2023-02-06T07:19:21.261Z,50.15
2023-02-06T07:21:47.720Z,37.20
2023-02-06T07:24:14.238Z,37.03
2023-02-06T07:26:41.537Z,43.15
2023-02-06T07:29:08.112Z,41.70
2023-02-06T07:31:34.633Z,34.00
2023-02-06T07:34:02.300Z,37.78
2023-02-06T07:36:29.026Z,48.83
2023-02-06T07:38:55.657Z,42.67
2023-02-06T07:41:22.166Z,44.55
2023-02-06T07:43:48.777Z,72.03
2023-02-06T07:46:15.449Z,69.43
2023-02-06T07:48:42.499Z,66.47
2023-02-06T07:51:09.460Z,66.40
2023-02-06T07:53:36.649Z,51.45
2023-02-06T07:56:13.731Z,66.15
2023-02-06T07:58:40.773Z,76.93
2023-02-06T08:01:07.833Z,69.30
2023-02-06T08:03:35.317Z,71.10
2023-02-06T08:06:08.067Z,74.63
2023-02-06T08:11:05.549Z,78.75
2023-02-06T08:13:32.146Z,67.97
2023-02-06T08:15:58.675Z,67.25
2023-02-06T08:18:25.244Z,61.40
2023-02-06T08:20:51.926Z,44.88
2023-02-06T08:23:20.833Z,39.75
2023-02-06T08:25:53.391Z,35.00
2023-02-06T08:28:20.841Z,34.90
2023-02-06T08:31:02.638Z,24.10
2023-02-06T08:33:29.249Z,27.55
2023-02-06T08:35:57.100Z,27.23
2023-02-06T08:38:24.005Z,23.60
2023-02-06T08:40:50.553Z,25.38
2023-02-06T08:43:17.015Z,37.05
2023-02-06T08:45:48.724Z,21.73
2023-02-06T08:48:15.648Z,27.67
2023-02-06T08:50:43.320Z,26.00
2023-02-06T08:53:10.437Z,23.50
2023-02-06T08:55:37.554Z,31.27
2023-02-06T08:58:04.764Z,20.42
2023-02-06T09:00:31.312Z,29.38
2023-02-06T09:02:57.891Z,24.45
2023-02-06T09:05:24.497Z,21.95
2023-02-06T09:07:51.006Z,39.40
2023-02-06T09:10:27.115Z,45.28
2023-02-06T09:12:54.877Z,38.08
2023-02-06T09:15:21.506Z,35.38
2023-02-06T09:17:48.105Z,32.50
2023-02-06T09:20:14.665Z,32.33
2023-02-06T09:22:41.167Z,34.47
2023-02-06T09:25:07.894Z,38.95
2023-02-06T09:27:34.466Z,26.42
2023-02-06T09:30:01.046Z,33.15
2023-02-06T09:32:27.541Z,28.33
2023-02-06T09:34:54.095Z,23.75
2023-02-06T09:37:21.376Z,20.25
2023-02-06T09:39:47.877Z,25.13
2023-02-06T09:42:41.288Z,28.80
2023-02-06T09:45:18.705Z,30.05
2023-02-06T09:47:49.652Z,24.55
2023-02-06T09:50:16.090Z,25.98
2023-02-06T09:53:01.631Z,21.48
2023-02-06T09:55:31.082Z,24.25
2023-02-06T09:58:09.886Z,24.98
2023-02-06T10:00:52.054Z,22.90
2023-02-06T10:03:50.967Z,16.75
2023-02-06T10:06:22.264Z,31.10
2023-02-06T10:08:48.783Z,26.50
2023-02-06T10:11:56.399Z,24.63
2023-02-06T10:14:50.850Z,24.17
2023-02-06T10:17:35.513Z,20.08
2023-02-06T10:20:36.112Z,28.48
2023-02-06T10:23:27.257Z,24.05
2023-02-06T10:26:12.460Z,23.63
2023-02-06T10:28:40.663Z,18.33
2023-02-06T10:31:26.213Z,32.65
2023-02-06T10:34:16.681Z,19.60
2023-02-06T10:37:24.208Z,23.30
2023-02-06T10:40:32.635Z,46.28
2023-02-06T10:43:07.677Z,39.95
2023-02-06T10:45:43.407Z,70.55
2023-02-06T10:48:16.024Z,35.58
2023-02-06T10:53:41.668Z,35.13
2023-02-06T10:56:12.646Z,26.20
2023-02-06T10:59:11.749Z,20.38
2023-02-06T11:01:40.804Z,27.65
2023-02-06T11:04:17.577Z,21.45
2023-02-06T11:06:46.732Z,24.50
2023-02-06T11:09:14.653Z,24.45
2023-02-06T11:11:51.273Z,23.38
2023-02-06T11:14:26.169Z,16.05
2023-02-06T11:16:53.608Z,25.77
2023-02-06T11:19:27.206Z,15.25
2023-02-06T11:21:55.457Z,19.60
2023-02-06T11:24:24.975Z,19.35
2023-02-06T11:26:56.997Z,15.10
2023-02-06T11:29:31.673Z,12.55
2023-02-06T11:32:01.174Z,21.55
2023-02-06T11:34:30.081Z,13.90
2023-02-06T11:37:01.036Z,15.10
2023-02-06T11:39:36.942Z,12.68
2023-02-06T11:42:04.895Z,18.17
2023-02-06T11:44:40.751Z,16.48
2023-02-06T11:47:29.308Z,17.27
2023-02-06T11:50:15.044Z,14.90
2023-02-06T11:52:46.656Z,14.98
2023-02-06T11:55:28.818Z,13.20
2023-02-06T11:58:24.778Z,16.75
2023-02-06T12:00:56.499Z,14.75
2023-02-06T12:03:32.658Z,16.40
2023-02-06T12:06:05.657Z,21.15
2023-02-06T12:08:43.774Z,13.88
2023-02-06T12:11:35.302Z,17.45
2023-02-06T12:14:09.246Z,18.27
2023-02-06T12:16:39.669Z,17.45
2023-02-06T12:19:13.913Z,23.45
2023-02-06T12:21:49.498Z,19.08
2023-02-06T12:24:36.005Z,12.68
2023-02-06T12:27:11.720Z,14.30
2023-02-06T12:29:43.618Z,17.60
2023-02-06T12:32:24.136Z,20.35
2023-02-06T12:35:00.168Z,16.95
2023-02-06T12:37:41.091Z,19.58
2023-02-06T12:40:29.394Z,14.63
2023-02-06T12:43:07.263Z,19.65
2023-02-06T12:45:56.295Z,16.30
2023-02-06T12:48:35.700Z,15.85
2023-02-06T12:51:16.232Z,16.52
2023-02-06T12:53:50.404Z,16.27
2023-02-06T12:56:31.849Z,23.35
2023-02-06T12:59:20.479Z,15.75
2023-02-06T13:02:00.526Z,14.98
2023-02-06T13:04:32.389Z,21.08
2023-02-06T13:07:13.348Z,22.48
2023-02-06T13:09:53.557Z,20.92
2023-02-06T13:12:24.403Z,17.02
2023-02-06T13:14:56.548Z,18.85
2023-02-06T13:17:31.846Z,23.77
2023-02-06T13:20:26.264Z,19.60
2023-02-06T13:23:14.483Z,18.83
2023-02-06T13:25:41.005Z,20.48
2023-02-06T13:28:23.004Z,15.30
2023-02-06T13:31:00.659Z,8.23
2023-02-06T13:33:39.172Z,19.17
2023-02-06T13:36:16.992Z,14.65
2023-02-06T13:38:43.672Z,17.98
2023-02-06T13:41:16.067Z,14.52
2023-02-06T13:43:51.514Z,9.63
2023-02-06T13:46:21.761Z,17.73
2023-02-06T13:49:10.955Z,20.55
2023-02-06T13:52:14.128Z,16.90
2023-02-06T13:57:54.831Z,10.75
2023-02-06T14:00:28.885Z,18.42
2023-02-06T14:03:13.241Z,18.73
2023-02-06T14:05:57.951Z,19.42
2023-02-06T14:08:43.774Z,14.57
2023-02-06T14:11:30.868Z,20.15
2023-02-06T14:14:21.664Z,17.20
2023-02-06T14:17:18.881Z,14.75
2023-02-06T14:19:57.638Z,15.40
2023-02-06T14:22:30.241Z,13.93
2023-02-06T14:28:08.935Z,15.82
2023-02-06T14:30:50.683Z,13.02
2023-02-06T14:33:45.089Z,13.63
2023-02-06T14:36:17.738Z,18.90
2023-02-06T14:41:11.057Z,21.95
2023-02-06T14:43:42.801Z,16.48
2023-02-06T14:46:14.563Z,21.27
2023-02-06T14:48:49.480Z,23.30
2023-02-06T14:51:22.927Z,15.18
2023-02-06T14:53:56.440Z,21.40
2023-02-06T14:56:29.700Z,10.93
2023-02-06T14:58:56.501Z,22.25
2023-02-06T15:01:30.277Z,16.05
2023-02-06T15:04:10.789Z,19.45
2023-02-06T15:06:40.871Z,15.00
2023-02-06T15:09:07.663Z,17.75
2023-02-06T15:11:34.746Z,26.17
2023-02-06T15:14:05.072Z,14.95
2023-02-06T15:16:45.608Z,14.18
2023-02-06T15:19:24.557Z,12.82
2023-02-06T15:21:57.752Z,21.00
2023-02-06T15:24:32.669Z,14.20
2023-02-06T15:27:05.328Z,14.57
2023-02-06T15:32:03.945Z,20.13
2023-02-06T15:34:31.134Z,17.40
2023-02-06T15:36:57.752Z,22.38
2023-02-06T15:39:25.245Z,17.23
2023-02-06T15:41:58.051Z,16.42
2023-02-06T15:44:31.066Z,21.27
2023-02-06T15:46:58.292Z,20.00
2023-02-06T15:49:43.266Z,15.52
2023-02-06T15:52:12.568Z,17.00
2023-02-06T15:54:42.511Z,17.30
2023-02-06T15:57:33.464Z,19.58
2023-02-06T16:00:01.033Z,24.13
2023-02-06T16:02:35.058Z,15.07
2023-02-06T16:05:02.844Z,11.25
2023-02-06T16:07:32.345Z,9.07
2023-02-06T16:10:08.217Z,10.88
2023-02-06T16:12:37.549Z,12.75
2023-02-06T16:15:28.676Z,15.50
2023-02-06T16:17:56.834Z,17.02
2023-02-06T16:20:40.883Z,19.58
2023-02-06T16:23:26.947Z,15.40
2023-02-06T16:26:27.057Z,10.63
2023-02-06T16:29:14.671Z,11.80
2023-02-06T16:31:44.176Z,12.75
2023-02-06T16:34:21.048Z,11.52
2023-02-06T16:36:48.579Z,10.20
2023-02-06T16:39:15.220Z,14.18
2023-02-06T16:41:42.693Z,17.25
2023-02-06T16:44:15.506Z,8.95
2023-02-06T16:46:42.226Z,10.38
2023-02-06T16:49:21.910Z,18.65
2023-02-06T16:51:51.098Z,12.35
2023-02-06T16:54:31.908Z,11.23
2023-02-06T16:57:16.574Z,13.85
2023-02-06T16:59:43.265Z,8.75
2023-02-06T17:02:12.075Z,11.98
2023-02-06T17:04:38.772Z,15.05
2023-02-06T17:07:10.698Z,18.13
2023-02-06T17:09:37.339Z,11.25
2023-02-06T17:12:03.977Z,13.52
2023-02-06T17:14:31.443Z,8.27
2023-02-06T17:16:58.069Z,11.57
2023-02-06T17:19:25.391Z,13.13
2023-02-06T17:21:51.916Z,9.80
2023-02-06T17:24:18.437Z,14.20
2023-02-06T17:26:44.965Z,27.52
2023-02-06T17:29:14.276Z,26.75
2023-02-06T17:31:40.965Z,16.33
2023-02-06T17:34:07.679Z,16.65
2023-02-06T17:36:39.525Z,13.57
2023-02-06T17:39:07.030Z,14.27
2023-02-06T17:41:33.607Z,16.88
2023-02-06T17:44:00.349Z,11.82
2023-02-06T17:46:26.946Z,9.98
2023-02-06T17:48:53.653Z,12.90
2023-02-06T17:51:20.227Z,9.02
2023-02-06T17:53:47.311Z,10.43
2023-02-06T17:56:13.979Z,15.25
2023-02-06T17:58:41.862Z,8.23
2023-02-06T18:01:13.374Z,14.48
2023-02-06T18:03:40.909Z,10.90
2023-02-06T18:06:08.671Z,12.25
2023-02-06T18:08:35.399Z,11.57
2023-02-06T18:11:11.452Z,15.05
2023-02-06T18:13:39.553Z,14.60
2023-02-06T18:16:07.372Z,10.13
2023-02-06T18:18:33.999Z,9.15
2023-02-06T18:21:01.080Z,8.23
2023-02-06T18:23:27.685Z,9.13
2023-02-06T18:25:54.411Z,20.48
2023-02-06T18:28:21.128Z,18.83
2023-02-06T18:30:47.807Z,24.35
2023-02-06T18:33:14.490Z,42.97
2023-02-06T18:35:44.890Z,69.15
2023-02-06T18:38:13.092Z,54.28
2023-02-06T18:40:41.427Z,26.88
2023-02-06T18:43:08.487Z,22.15
2023-02-06T18:45:38.427Z,18.38
2023-02-06T18:48:07.431Z,27.85
2023-02-06T18:50:35.391Z,26.85
2023-02-06T18:53:02.071Z,23.02
2023-02-06T18:55:28.743Z,24.45
2023-02-06T18:57:55.429Z,23.08
2023-02-06T19:00:23.965Z,23.00
2023-02-06T19:02:50.779Z,17.75
2023-02-06T19:05:18.470Z,23.73
2023-02-06T19:07:49.764Z,20.90
2023-02-06T19:10:19.010Z,20.80
2023-02-06T19:12:46.346Z,17.73
2023-02-06T19:15:14.845Z,17.08
2023-02-06T19:17:42.008Z,22.52
2023-02-06T19:20:10.332Z,19.67
2023-02-06T19:22:38.264Z,18.42
2023-02-06T19:25:14.001Z,17.38
2023-02-06T19:28:38.291Z,16.48
2023-02-06T19:31:06.918Z,15.13
2023-02-06T19:33:35.814Z,21.00
2023-02-06T19:36:13.981Z,16.00
2023-02-06T19:38:41.644Z,24.52
2023-02-06T19:41:16.556Z,17.40
2023-02-06T19:43:43.161Z,28.35
2023-02-06T19:46:12.734Z,30.02
2023-02-06T19:48:44.068Z,30.00
2023-02-06T19:51:16.233Z,21.08
2023-02-06T19:53:45.652Z,15.32
2023-02-06T19:56:14.017Z,23.52
2023-02-06T19:58:41.582Z,15.88
2023-02-06T20:01:09.926Z,18.02
2023-02-06T20:03:36.901Z,16.05
2023-02-06T20:06:06.222Z,19.60
2023-02-06T20:08:33.551Z,12.13
2023-02-06T20:11:08.080Z,13.57
2023-02-06T20:13:35.730Z,15.55
2023-02-06T20:16:03.794Z,8.82
2023-02-06T20:18:31.478Z,17.73
2023-02-06T20:20:58.158Z,17.33
2023-02-06T20:23:24.916Z,17.05
2023-02-06T20:25:52.244Z,16.48
2023-02-06T20:28:19.348Z,12.63
2023-02-06T20:30:45.944Z,15.65
2023-02-06T20:33:12.588Z,20.13
2023-02-06T20:35:40.559Z,20.25
2023-02-06T20:38:07.407Z,15.52
2023-02-06T20:40:34.269Z,14.77
2023-02-06T20:43:00.954Z,12.20
2023-02-06T20:45:27.448Z,15.10
2023-02-06T20:47:54.043Z,12.57
2023-02-06T20:50:20.686Z,16.00
2023-02-06T20:52:47.308Z,16.00
2023-02-06T20:55:13.924Z,18.25
2023-02-06T20:57:41.118Z,18.50
2023-02-06T21:00:08.540Z,20.08
2023-02-06T21:02:36.498Z,23.23
2023-02-06T21:05:03.128Z,27.30
2023-02-06T21:07:30.275Z,30.02
2023-02-06T21:09:56.786Z,18.20
2023-02-06T21:12:23.419Z,18.55
2023-02-06T21:14:50.012Z,16.85
2023-02-06T21:17:16.660Z,19.33
2023-02-06T21:19:43.166Z,22.20
2023-02-06T21:22:09.677Z,20.58
2023-02-06T21:24:36.245Z,16.23
2023-02-06T21:27:02.914Z,14.57
2023-02-06T21:29:29.540Z,15.10
2023-02-06T21:32:12.243Z,13.98
2023-02-06T21:34:40.449Z,12.40
2023-02-06T21:37:07.055Z,14.00
2023-02-06T21:39:34.114Z,15.98
2023-02-06T21:42:01.604Z,13.30
2023-02-06T21:44:28.879Z,19.20
2023-02-06T21:46:56.003Z,11.52
2023-02-06T21:49:24.045Z,12.60
2023-02-06T21:51:51.076Z,19.10
2023-02-06T21:54:18.143Z,15.88
2023-02-06T21:56:44.833Z,19.50
2023-02-06T21:59:12.380Z,17.90
2023-02-06T22:01:41.113Z,18.40
2023-02-06T22:04:09.144Z,18.70
2023-02-06T22:06:39.174Z,16.38
2023-02-06T22:09:08.999Z,23.65
2023-02-06T22:11:38.017Z,18.42
2023-02-06T22:14:07.691Z,21.92
2023-02-06T22:16:34.810Z,24.17
2023-02-06T22:19:01.543Z,14.70
2023-02-06T22:21:30.339Z,18.00
2023-02-06T22:23:59.406Z,17.88
2023-02-06T22:26:27.396Z,23.13
2023-02-06T22:28:54.088Z,19.67
2023-02-06T22:31:23.269Z,22.38
2023-02-06T22:33:50.845Z,12.15
2023-02-06T22:36:20.480Z,19.27
2023-02-06T22:38:48.417Z,17.63
2023-02-06T22:41:16.498Z,21.73
2023-02-06T22:43:44.905Z,16.23
2023-02-06T22:46:20.269Z,14.18
2023-02-06T22:48:47.528Z,26.58
2023-02-06T22:51:14.221Z,17.88
2023-02-06T22:53:41.001Z,18.10
2023-02-06T22:56:27.211Z,14.93
2023-02-06T22:58:56.252Z,17.52
2023-02-06T23:01:29.068Z,12.40
2023-02-06T23:03:57.596Z,15.13
2023-02-06T23:06:25.942Z,13.32
2023-02-06T23:08:52.631Z,13.40
2023-02-06T23:11:19.434Z,19.50
2023-02-06T23:13:46.107Z,15.77
2023-02-06T23:16:12.852Z,16.17
2023-02-06T23:18:39.444Z,12.80
2023-02-06T23:21:10.268Z,13.38
2023-02-06T23:23:38.000Z,17.52
2023-02-06T23:26:10.108Z,12.88
2023-02-06T23:28:37.994Z,17.50
2023-02-06T23:31:05.708Z,20.65
2023-02-06T23:33:32.727Z,12.02
2023-02-06T23:36:08.512Z,17.48
2023-02-06T23:38:35.158Z,17.60
2023-02-06T23:41:11.073Z,16.05
2023-02-06T23:43:38.823Z,19.55
2023-02-06T23:46:06.712Z,17.13
2023-02-06T23:48:35.180Z,10.07
2023-02-06T23:51:02.375Z,16.13
2023-02-06T23:53:29.010Z,11.93
2023-02-06T23:55:55.898Z,21.63
2023-02-06T23:58:22.574Z,15.57
